Latest Weather Observations for Flinders Reef

IDQ60801

Issued at 2:02 am EST Monday 26 January 2015 (issued every 30 minutes, with the page automatically refreshed every 10 minutes)

About weather observations | Map of weather stations | Latest weather observations for QLD | Other Formats
Station Details ID: 200783 Name: FLINDERS REEF Lat: -17.72 Lon: 148.45 Height: 2.6 m
Data from the previous 72 hours. | See also: Recent months at Flinders Reef
Date/Time
EST
Temp
°C
App
Temp
°C
Dew
Point
Rel
Hum
%
Delta-T
°C
Wind Press
QNH
hPa
Press
MSL
hPa
Rain
since 9 am
mm
Dir
 
Spd
km/h
Gust
km/h
Spd
kts
Gust
kts
26/02:00am - - - - - WNW 35 43 19 23 1005.9 - -
26/01:30am - - - - - WNW 39 44 21 24 1006.5 - -
26/01:24am - - - - - WNW 41 - 22 - - 1006.5 -
26/01:15am - - - - - W 32 44 17 24 1006.7 - -
26/01:00am - - - - - W 22 26 12 14 1006.4 - -
26/12:30am - - - - - WNW 26 32 14 17 1007.2 - -
26/12:24am - - - - - WNW 26 - 14 - - 1007.2 -
26/12:00am - - - - - WNW 28 32 15 17 1007.8 - -
 
Date/Time
EST
Temp
°C
App
Temp
°C
Dew
Point
Rel
Hum
%
Delta-T
°C
Wind Press
QNH
hPa
Press
MSL
hPa
Rain
since 9 am
mm
Dir
 
Spd
km/h
Gust
km/h
Spd
kts
Gust
kts
25/11:30pm - - - - - NW 30 35 16 19 1008.5 - -
25/11:24pm - - - - - NNW 32 - 17 - - 1008.2 -
25/11:00pm - - - - - NNW 28 32 15 17 1008.0 - -
25/10:30pm - - - - - NNW 28 32 15 17 1008.2 - -
25/10:24pm - - - - - NNW 30 - 16 - - 1008.3 -
25/10:00pm - - - - - NNW 32 37 17 20 1008.1 - -
25/09:30pm - - - - - NNW 32 39 17 21 1008.4 - -
25/09:24pm - - - - - NNW 33 - 18 - - 1008.2 -
25/09:00pm - - - - - NNW 33 39 18 21 1008.0 - -
25/08:30pm - - - - - NNW 32 37 17 20 1007.4 - -
25/08:24pm - - - - - NNW 33 - 18 - - 1007.3 -
25/08:00pm - - - - - NNW 33 39 18 21 1007.1 - -
25/07:30pm - - - - - NNW 33 37 18 20 1007.0 - -
25/07:24pm - - - - - NNW 32 - 17 - - 1006.9 -
25/07:00pm - - - - - NW 32 35 17 19 1006.8 - -
25/06:30pm - - - - - NW 28 33 15 18 1006.6 - -
25/06:24pm - - - - - NW 30 - 16 - - 1006.5 -
25/06:00pm - - - - - NW 30 33 16 18 1006.1 - -
25/05:30pm - - - - - NW 28 33 15 18 1005.5 - -
25/05:24pm - - - - - NW 28 - 15 - - 1005.4 -
25/05:00pm - - - - - NW 30 33 16 18 1005.3 - -
25/04:30pm - - - - - NW 28 33 15 18 1005.2 - -
25/04:24pm - - - - - NW 30 - 16 - - 1005.0 -
25/04:00pm - - - - - NW 30 35 16 19 1005.3 - -
25/03:30pm - - - - - NW 30 32 16 17 1005.6 - -
25/03:24pm - - - - - NW 30 - 16 - - 1005.7 -
25/03:00pm - - - - - NW 33 39 18 21 1006.1 - -
25/02:30pm - - - - - NW 32 37 17 20 1006.5 - -
25/02:24pm - - - - - NW 33 - 18 - - 1006.5 -
25/02:00pm - - - - - NW 32 37 17 20 1006.8 - -
25/01:30pm - - - - - NW 33 37 18 20 1007.2 - -
25/01:24pm - - - - - WNW 32 - 17 - - 1007.2 -
25/01:00pm - - - - - NW 32 35 17 19 1007.5 - -
25/12:30pm - - - - - NW 30 33 16 18 1008.0 - -
25/12:24pm - - - - - NW 32 - 17 - - 1007.9 -
25/12:00pm - - - - - NW 28 32 15 17 1008.2 - -
25/11:30am - - - - - NW 26 30 14 16 1008.5 - -
25/11:24am - - - - - NNW 26 - 14 - - 1008.5 -
25/11:00am - - - - - NNW 24 28 13 15 1008.7 - -
25/10:30am - - - - - NNW 20 24 11 13 1009.1 - -
25/10:24am - - - - - NNW 20 - 11 - - 1009.0 -
25/10:00am - - - - - NNW 20 22 11 12 1009.1 - -
25/09:30am - - - - - NNW 20 24 11 13 1009.1 - -
25/09:24am - - - - - NW 20 - 11 - - 1009.0 -
25/09:00am - - - - - NW 24 28 13 15 1009.1 - -
25/08:30am - - - - - NW 22 26 12 14 1008.9 - -
25/08:24am - - - - - NW 20 - 11 - - 1008.8 -
25/08:00am - - - - - NW 19 20 10 11 1009.0 - -
25/07:30am - - - - - NW 22 26 12 14 1009.0 - -
25/07:24am - - - - - NW 22 - 12 - - 1008.9 -
25/07:00am - - - - - WNW 19 22 10 12 1008.8 - -
25/06:30am - - - - - WNW 20 22 11 12 1008.4 - -
25/06:24am - - - - - WNW 19 - 10 - - 1008.2 -
25/06:00am - - - - - WNW 26 30 14 16 1007.9 - -
25/05:30am - - - - - WNW 28 32 15 17 1007.5 - -
25/05:24am - - - - - WNW 28 - 15 - - 1007.3 -
25/05:00am - - - - - NW 35 43 19 23 1007.4 - -
25/04:30am - - - - - NW 35 41 19 22 1007.6 - -
25/04:24am - - - - - NW 33 - 18 - - 1007.5 -
25/04:00am - - - - - NW 35 43 19 23 1007.5 - -
25/03:30am - - - - - NW 35 41 19 22 1007.3 - -
25/03:24am - - - - - NW 33 - 18 - - 1007.2 -
25/03:00am - - - - - NW 37 43 20 23 1007.4 - -
25/02:30am - - - - - NW 35 41 19 22 1007.6 - -
25/02:24am - - - - - NW 35 - 19 - - 1007.5 -
25/02:00am - - - - - NW 39 44 21 24 1008.0 - -
25/01:30am - - - - - NNW 37 46 20 25 1008.1 - -
25/01:24am - - - - - NNW 37 - 20 - - 1008.0 -
25/01:00am - - - - - NW 37 41 20 22 1008.3 - -
25/12:30am - - - - - NNW 35 41 19 22 1008.7 - -
25/12:24am - - - - - NNW 35 - 19 - - 1008.6 -
25/12:00am - - - - - NNW 33 43 18 23 1008.8 - -
 
Date/Time
EST
Temp
°C
App
Temp
°C
Dew
Point
Rel
Hum
%
Delta-T
°C
Wind Press
QNH
hPa
Press
MSL
hPa
Rain
since 9 am
mm
Dir
 
Spd
km/h
Gust
km/h
Spd
kts
Gust
kts
24/11:30pm - - - - - NNW 37 43 20 23 1009.0 - -
24/11:24pm - - - - - NNW 37 - 20 - - 1009.0 -
24/11:00pm - - - - - NNW 39 46 21 25 1009.2 - -
24/10:30pm - - - - - NNW 39 44 21 24 1009.4 - -
24/10:24pm - - - - - NNW 37 - 20 - - 1009.4 -
24/10:00pm - - - - - NNW 41 46 22 25 1009.4 - -
24/09:30pm - - - - - NNW 39 46 21 25 1009.1 - -
24/09:24pm - - - - - NNW 39 - 21 - - 1009.1 -
24/09:00pm - - - - - NNW 37 44 20 24 1009.0 - -
24/08:30pm - - - - - NNW 39 44 21 24 1008.5 - -
24/08:24pm - - - - - NNW 37 - 20 - - 1008.4 -
24/08:00pm - - - - - N 35 41 19 22 1008.1 - -
24/07:30pm - - - - - N 30 33 16 18 1007.5 - -
24/07:24pm - - - - - NNW 32 - 17 - - 1007.4 -
24/07:00pm - - - - - NNW 30 33 16 18 1007.2 - -
24/06:30pm - - - - - NNW 32 35 17 19 1006.8 - -
24/06:24pm - - - - - NNW 32 - 17 - - 1006.8 -
24/06:00pm - - - - - NNW 35 39 19 21 1006.6 - -
24/05:30pm - - - - - NNW 35 41 19 22 1006.4 - -
24/05:24pm - - - - - NNW 37 - 20 - - 1006.3 -
24/05:00pm - - - - - NNW 37 43 20 23 1006.1 - -
24/04:30pm - - - - - NNW 39 44 21 24 1005.6 - -
24/04:24pm - - - - - NNW 39 - 21 - - 1005.4 -
24/04:00pm - - - - - NNW 37 43 20 23 1005.5 - -
24/03:30pm - - - - - NW 43 48 23 26 1005.7 - -
24/03:24pm - - - - - NNW 41 - 22 - - 1005.7 -
24/03:00pm - - - - - NNW 41 46 22 25 1006.0 - -
24/02:30pm - - - - - NW 33 41 18 22 1006.2 - -
24/02:24pm - - - - - NW 33 - 18 - - 1006.2 -
24/02:00pm - - - - - NW 33 37 18 20 1006.4 - -
24/01:30pm - - - - - NW 35 41 19 22 1006.7 - -
24/01:24pm - - - - - NW 37 - 20 - - 1006.7 -
24/01:00pm - - - - - NW 33 37 18 20 1006.9 - -
24/12:30pm - - - - - NW 28 32 15 17 1007.0 - -
24/12:24pm - - - - - NW 28 - 15 - - 1006.8 -
24/12:00pm - - - - - NNW 35 41 19 22 1007.2 - -
24/11:30am - - - - - NNW 39 44 21 24 1007.6 - -
24/11:24am - - - - - NNW 39 - 21 - - 1007.5 -
24/11:00am - - - - - NNW 37 43 20 23 1007.7 - -
24/10:30am - - - - - NNW 32 37 17 20 1007.5 - -
24/10:24am - - - - - NNW 33 - 18 - - 1007.4 -
24/10:00am - - - - - NNW 33 39 18 21 1007.5 - -
24/09:30am - - - - - NNW 35 41 19 22 1007.7 - -
24/09:24am - - - - - NNW 33 - 18 - - 1007.6 -
24/09:00am - - - - - NNW 30 35 16 19 1007.5 - -
24/08:30am - - - - - NNW 28 32 15 17 1007.4 - -
24/08:24am - - - - - NNW 28 - 15 - - 1007.3 -
24/08:00am - - - - - NNW 28 32 15 17 1007.2 - -
24/07:30am - - - - - NNW 30 35 16 19 1007.1 - -
24/07:24am - - - - - NNW 32 - 17 - - 1007.0 -
24/07:00am - - - - - NNW 33 39 18 21 1007.2 - -
24/06:30am - - - - - NNW 37 43 20 23 1007.0 - -
24/06:24am - - - - - NNW 35 - 19 - - 1006.9 -
24/06:00am - - - - - NNW 41 50 22 27 1006.5 - -
24/05:30am - - - - - N 35 44 19 24 1006.1 - -
24/05:24am - - - - - N 33 - 18 - - 1005.9 -
24/05:00am - - - - - N 37 43 20 23 1005.6 - -
24/04:30am - - - - - N 37 43 20 23 1005.1 - -
24/04:24am - - - - - N 35 - 19 - - 1005.0 -
24/04:00am - - - - - N 37 44 20 24 1005.1 - -
24/03:30am - - - - - NNW 37 43 20 23 1005.1 - -
24/03:24am - - - - - NNW 37 - 20 - - 1005.0 -
24/03:00am - - - - - NNW 37 43 20 23 1004.9 - -
24/02:30am - - - - - N 37 44 20 24 1005.1 - -
24/02:24am - - - - - N 35 - 19 - - 1005.0 -
24/02:00am - - - - - N 35 43 19 23 1005.3 - -
24/01:30am - - - - - NNW 37 44 20 24 1005.3 - -
24/01:24am - - - - - NNW 35 - 19 - - 1005.3 -
24/01:00am - - - - - NNW 37 43 20 23 1005.9 - -
24/12:30am - - - - - NNW 43 48 23 26 1006.1 - -
24/12:24am - - - - - NNW 43 - 23 - - 1006.0 -
24/12:00am - - - - - NNW 46 56 25 30 1006.4 - -
 
Date/Time
EST
Temp
°C
App
Temp
°C
Dew
Point
Rel
Hum
%
Delta-T
°C
Wind Press
QNH
hPa
Press
MSL
hPa
Rain
since 9 am
mm
Dir
 
Spd
km/h
Gust
km/h
Spd
kts
Gust
kts
23/11:30pm - - - - - NNW 41 48 22 26 1006.7 - -
23/11:24pm - - - - - NNW 39 - 21 - - 1006.6 -
23/11:00pm - - - - - NNW 39 44 21 24 1006.8 - -
23/10:30pm - - - - - N 37 41 20 22 1006.6 - -
23/10:24pm - - - - - N 37 - 20 - - 1006.6 -
23/10:00pm - - - - - N 37 43 20 23 1006.6 - -
23/09:30pm - - - - - N 35 41 19 22 1006.2 - -
23/09:24pm - - - - - N 37 - 20 - - 1006.0 -
23/09:00pm - - - - - N 33 39 18 21 1006.0 - -
23/08:30pm - - - - - N 32 35 17 19 1005.8 - -
23/08:24pm - - - - - N 32 - 17 - - 1005.7 -
23/08:00pm - - - - - N 32 35 17 19 1005.3 - -
23/07:30pm - - - - - N 32 35 17 19 1005.2 - -
23/07:24pm - - - - - N 32 - 17 - - 1005.0 -
23/07:00pm - - - - - NNW 28 32 15 17 1005.0 - -
23/06:30pm - - - - - N 28 32 15 17 1004.4 - -
23/06:24pm - - - - - N 28 - 15 - - 1004.3 -
23/06:00pm - - - - - NW 30 33 16 18 1004.2 - -
23/05:30pm - - - - - NW 28 32 15 17 1003.7 - -
23/05:24pm - - - - - NW 28 - 15 - - 1003.6 -
23/05:00pm - - - - - NW 26 30 14 16 1003.4 - -
23/04:30pm - - - - - NW 24 28 13 15 1003.0 - -
23/04:24pm - - - - - NW 24 - 13 - - 1002.8 -
23/04:00pm - - - - - NW 26 32 14 17 1002.8 - -
23/03:30pm - - - - - NW 32 35 17 19 1002.9 - -
23/03:24pm - - - - - NW 32 - 17 - - 1002.8 -
23/03:00pm - - - - - NW 30 35 16 19 1003.0 - -
23/02:30pm - - - - - NNW 32 35 17 19 1003.5 - -
23/02:24pm - - - - - NW 30 - 16 - - 1003.5 -
23/02:00pm - - - - - NW 30 35 16 19 1003.7 - -
23/01:30pm - - - - - NNW 30 35 16 19 1004.0 - -
23/01:24pm - - - - - NNW 28 - 15 - - 1003.9 -
23/01:00pm - - - - - NNW 28 35 15 19 1004.2 - -
23/12:30pm - - - - - NW 30 35 16 19 1004.4 - -
23/12:24pm - - - - - NW 22 - 12 - - 1004.4 -
23/12:00pm - - - - - NW 22 26 12 14 1004.5 - -
23/11:30am - - - - - NW 20 26 11 14 1004.8 - -
23/11:24am - - - - - NW 20 - 11 - - 1004.8 -
23/11:00am - - - - - WNW 20 24 11 13 1005.1 - -
23/10:30am - - - - - WNW 15 17 8 9 1005.3 - -
23/10:24am - - - - - WNW 15 - 8 - - 1005.2 -
23/10:00am - - - - - W 15 17 8 9 1005.7 - -
23/09:30am - - - - - WSW 15 17 8 9 1005.8 - -
23/09:24am - - - - - WSW 15 - 8 - - 1005.7 -
23/09:00am - - - - - WSW 19 22 10 12 1005.8 - -
23/08:30am - - - - - SW 26 32 14 17 1006.1 - -
23/08:24am - - - - - SW 26 - 14 - - 1005.9 -
23/08:00am - - - - - SW 46 57 25 31 1005.1 - -
23/07:53am - - - - - SW 48 54 26 29 1005.2 - -
23/07:42am - - - - - WNW 33 48 18 26 1005.4 - -
23/07:30am - - - - - NW 41 52 22 28 1005.5 - -
23/07:24am - - - - - NW 39 - 21 - - 1005.2 -
23/07:00am - - - - - NW 41 48 22 26 1005.2 - -
23/06:30am - - - - - NW 43 50 23 27 1004.8 - -
23/06:24am - - - - - NW 43 - 23 - - 1004.7 -
23/06:00am - - - - - NNW 37 50 20 27 1004.4 - -
23/05:30am - - - - - NNW 39 57 21 31 1004.0 - -
23/05:29am - - - - - NNW 39 57 21 31 1004.0 - -
23/05:24am - - - - - NNW 41 - 22 - - 1003.8 -
23/05:00am - - - - - NNW 41 48 22 26 1003.8 - -
23/04:30am - - - - - NW 41 52 22 28 1003.9 - -
23/04:24am - - - - - NW 39 - 21 - - 1003.8 -
23/04:00am - - - - - NNW 41 46 22 25 1003.6 - -
23/03:30am - - - - - NNW 41 48 22 26 1003.4 - -
23/03:24am - - - - - NNW 39 - 21 - - 1003.1 -
23/03:00am - - - - - NNW 39 44 21 24 1003.2 - -
23/02:30am - - - - - NNW 39 48 21 26 1003.5 - -
23/02:24am - - - - - NNW 39 - 21 - - 1003.6 -

Other Formats:

Comma delimited format used in spreadsheet applications
http://www.bom.gov.au/fwo/IDQ60801/IDQ60801.94290.axf

JavaScript Object Notation format (JSON) in row-major order
http://www.bom.gov.au/fwo/IDQ60801/IDQ60801.94290.json